This is the latest recevied weather packets stored in our database for station/object VA3PC-13. If no packets are shown the sender has not sent any weather packets the latest 10 day(s).
| Time | Temp. | Humidity | Pressure | Rain* | Wind** | Luminosity | Snow |
|---|---|---|---|---|---|---|---|
| 1778011519 | 11.67° C | 38% | 973.9 hPa | 0 mm | - | 609 W/m² | - |
| 1778010918 | 11.67° C | 38% | 973.7 hPa | 0 mm | - | 655 W/m² | - |
| 1778007319 | 12.22° C | 40% | 972.9 hPa | 0 mm | - | 802 W/m² | - |
| 1778006117 | 11.67° C | 41% | 972.7 hPa | 0 mm | - | 739 W/m² | - |
| 1778003117 | 12.22° C | 40% | 972.1 hPa | 0 mm | - | 891 W/m² | - |
| 1778000718 | 12.22° C | 40% | 971.8 hPa | 0 mm | - | 909 W/m² | - |
| 1777996519 | 10° C | 48% | 972.5 hPa | 0 mm | - | 220 W/m² | - |
| 1777995362 | 10° C | 51% | 971.7 hPa | 0 mm | - | 230 W/m² | - |
| 1777992916 | 10° C | 60% | 971.3 hPa | 0 mm | - | 299 W/m² | - |
| 1777992319 | 10° C | 60% | 971.1 hPa | 0 mm | - | 302 W/m² | - |
| 1777988721 | 8.33° C | 72% | 971.4 hPa | 0 mm | - | 106 W/m² | - |
| 1777986918 | 8.89° C | 72% | 970.9 hPa | 0 mm | - | 107 W/m² | - |
| 1777982118 | 8.33° C | 78% | 969.9 hPa | 0 mm | - | 31 W/m² | - |
| 1777979718 | 8.33° C | 81% | 969.5 hPa | 0 mm | - | 32 W/m² | - |
| 1777977921 | 8.33° C | 85% | 969.1 hPa | 0 mm | - | 10 W/m² | - |
| 1777970119 | 10° C | 76% | 967.9 hPa | 0 mm | - | 0 W/m² | - |
| 1777968919 | 10° C | 77% | 967.9 hPa | 0.25 mm | - | 0 W/m² | - |
| 1777968317 | 10° C | 78% | 967.9 hPa | 0.25 mm | - | 0 W/m² | - |
| 1777955719 | 14.44° C | 65% | 967.2 hPa | 0.25 mm | - | 0 W/m² | - |
| 1777955116 | 14.44° C | 65% | 967.4 hPa | 0.25 mm | - | 0 W/m² | - |
| 1777953920 | 15.56° C | 58% | 967.8 hPa | 0 mm | - | 0 W/m² | - |
| 1777952117 | 16.67° C | 52% | 966.9 hPa | 0 mm | - | 0 W/m² | - |
| 1777950918 | 17.22° C | 51% | 966.6 hPa | 0 mm | - | 0 W/m² | - |
| 1777950317 | 17.22° C | 50% | 966.3 hPa | 0 mm | - | 0 W/m² | - |
| 1777946118 | 17.78° C | 48% | 966.1 hPa | 0 mm | - | 0 W/m² | - |
* Rain latest hour (hover to see other rain measurements)
** Current wind speed in m/s (hover to see current wind gust speed)